sensor_id;sensor_type;location;lat;lon;timestamp;pressure;altitude;pressure_sealevel;temperature;humidity
24962;BME280;12992;50.884;13.668;2023-05-01T00:01:03;97542.38;;;3.19;100.00
24962;BME280;12992;50.884;13.668;2023-05-01T00:03:30;97539.88;;;3.10;100.00
24962;BME280;12992;50.884;13.668;2023-05-01T00:06:00;97531.31;;;3.00;100.00
24962;BME280;12992;50.884;13.668;2023-05-01T00:08:26;97543.94;;;3.00;100.00
24962;BME280;12992;50.884;13.668;2023-05-01T00:10:52;97558.69;;;3.10;100.00
24962;BME280;12992;50.884;13.668;2023-05-01T00:13:17;97545.63;;;3.01;100.00
24962;BME280;12992;50.884;13.668;2023-05-01T00:15:46;97554.56;;;3.15;100.00
24962;BME280;12992;50.884;13.668;2023-05-01T00:18:11;97545.22;;;3.04;100.00
24962;BME280;12992;50.884;13.668;2023-05-01T00:20:36;97527.41;;;2.96;100.00
24962;BME280;12992;50.884;13.668;2023-05-01T00:23:02;97509.78;;;2.87;100.00
24962;BME280;12992;50.884;13.668;2023-05-01T00:25:27;97517.00;;;2.80;100.00
24962;BME280;12992;50.884;13.668;2023-05-01T00:27:53;97522.81;;;2.83;100.00
24962;BME280;12992;50.884;13.668;2023-05-01T00:30:18;97528.59;;;2.87;100.00
24962;BME280;12992;50.884;13.668;2023-05-01T00:32:43;97521.56;;;2.86;100.00
24962;BME280;12992;50.884;13.668;2023-05-01T00:35:09;97540.22;;;2.94;100.00
24962;BME280;12992;50.884;13.668;2023-05-01T00:37:34;97539.41;;;3.00;100.00
24962;BME280;12992;50.884;13.668;2023-05-01T00:39:59;97506.25;;;2.87;100.00
24962;BME280;12992;50.884;13.668;2023-05-01T00:42:25;97501.66;;;2.74;100.00
24962;BME280;12992;50.884;13.668;2023-05-01T00:44:50;97499.38;;;2.71;100.00
24962;BME280;12992;50.884;13.668;2023-05-01T00:47:15;97509.13;;;2.78;100.00
24962;BME280;12992;50.884;13.668;2023-05-01T00:49:42;97516.59;;;2.83;100.00
24962;BME280;12992;50.884;13.668;2023-05-01T00:52:08;97488.78;;;2.63;100.00
24962;BME280;12992;50.884;13.668;2023-05-01T00:54:35;97511.56;;;2.73;100.00
24962;BME280;12992;50.884;13.668;2023-05-01T00:57:01;97511.19;;;2.76;100.00
24962;BME280;12992;50.884;13.668;2023-05-01T00:59:26;97513.88;;;2.76;100.00
24962;BME280;12992;50.884;13.668;2023-05-01T01:01:52;97504.34;;;2.74;100.00
24962;BME280;12992;50.884;13.668;2023-05-01T01:04:17;97506.66;;;2.77;100.00
24962;BME280;12992;50.884;13.668;2023-05-01T01:06:55;97507.88;;;2.74;100.00
24962;BME280;12992;50.884;13.668;2023-05-01T01:14:53;97465.38;;;2.43;100.00
24962;BME280;12992;50.884;13.668;2023-05-01T01:20:30;97493.72;;;2.52;100.00
24962;BME280;12992;50.884;13.668;2023-05-01T01:23:12;97493.31;;;2.49;100.00
24962;BME280;12992;50.884;13.668;2023-05-01T01:26:06;97481.50;;;2.43;100.00
24962;BME280;12992;50.884;13.668;2023-05-01T01:29:03;97480.41;;;2.38;100.00
24962;BME280;12992;50.884;13.668;2023-05-01T01:32:00;97484.59;;;2.40;100.00
24962;BME280;12992;50.884;13.668;2023-05-01T01:34:39;97500.53;;;2.48;100.00
24962;BME280;12992;50.884;13.668;2023-05-01T01:37:18;97487.47;;;2.45;100.00
24962;BME280;12992;50.884;13.668;2023-05-01T01:39:54;97483.34;;;2.43;100.00
24962;BME280;12992;50.884;13.668;2023-05-01T01:42:25;97454.38;;;2.32;100.00
24962;BME280;12992;50.884;13.668;2023-05-01T01:44:55;97455.34;;;2.24;100.00
24962;BME280;12992;50.884;13.668;2023-05-01T01:47:28;97461.75;;;2.23;100.00
24962;BME280;12992;50.884;13.668;2023-05-01T01:49:57;97449.38;;;2.22;100.00
24962;BME280;12992;50.884;13.668;2023-05-01T01:52:25;97453.88;;;2.15;100.00
24962;BME280;12992;50.884;13.668;2023-05-01T01:54:54;97451.41;;;2.20;100.00
24962;BME280;12992;50.884;13.668;2023-05-01T01:57:23;97438.53;;;2.09;100.00
24962;BME280;12992;50.884;13.668;2023-05-01T01:59:50;97453.09;;;2.21;100.00
24962;BME280;12992;50.884;13.668;2023-05-01T02:02:18;97422.78;;;1.99;100.00
24962;BME280;12992;50.884;13.668;2023-05-01T02:04:44;97436.88;;;2.08;100.00
24962;BME280;12992;50.884;13.668;2023-05-01T02:07:11;97444.75;;;2.09;100.00
24962;BME280;12992;50.884;13.668;2023-05-01T02:09:39;97434.41;;;2.06;100.00
24962;BME280;12992;50.884;13.668;2023-05-01T02:12:07;97423.16;;;1.89;100.00
24962;BME280;12992;50.884;13.668;2023-05-01T02:14:32;97431.78;;;1.85;100.00
24962;BME280;12992;50.884;13.668;2023-05-01T02:16:59;97438.00;;;1.85;100.00
24962;BME280;12992;50.884;13.668;2023-05-01T02:19:26;97423.25;;;1.68;100.00
24962;BME280;12992;50.884;13.668;2023-05-01T02:21:54;97431.09;;;1.69;100.00
24962;BME280;12992;50.884;13.668;2023-05-01T02:24:23;97420.31;;;1.63;100.00
24962;BME280;12992;50.884;13.668;2023-05-01T02:26:53;97432.56;;;1.72;100.00
24962;BME280;12992;50.884;13.668;2023-05-01T02:29:20;97442.31;;;1.80;100.00
24962;BME280;12992;50.884;13.668;2023-05-01T02:31:45;97432.13;;;1.68;100.00
24962;BME280;12992;50.884;13.668;2023-05-01T02:34:10;97426.31;;;1.65;100.00
24962;BME280;12992;50.884;13.668;2023-05-01T02:36:36;97438.69;;;1.66;100.00
24962;BME280;12992;50.884;13.668;2023-05-01T02:39:02;97428.38;;;1.63;100.00
24962;BME280;12992;50.884;13.668;2023-05-01T02:41:28;97434.56;;;1.63;100.00
24962;BME280;12992;50.884;13.668;2023-05-01T02:44:00;97427.47;;;1.56;100.00
24962;BME280;12992;50.884;13.668;2023-05-01T02:46:26;97429.94;;;1.51;100.00
24962;BME280;12992;50.884;13.668;2023-05-01T02:48:53;97421.63;;;1.46;100.00
24962;BME280;12992;50.884;13.668;2023-05-01T02:51:19;97428.66;;;1.47;100.00
24962;BME280;12992;50.884;13.668;2023-05-01T02:53:45;97440.69;;;1.57;100.00
24962;BME280;12992;50.884;13.668;2023-05-01T02:56:18;97424.38;;;1.52;100.00
24962;BME280;12992;50.884;13.668;2023-05-01T02:58:43;97438.22;;;1.56;100.00
24962;BME280;12992;50.884;13.668;2023-05-01T03:01:09;97431.19;;;1.55;100.00
24962;BME280;12992;50.884;13.668;2023-05-01T03:03:35;97419.59;;;1.48;100.00
24962;BME280;12992;50.884;13.668;2023-05-01T03:06:01;97418.19;;;1.52;100.00
24962;BME280;12992;50.884;13.668;2023-05-01T03:08:28;97406.56;;;1.45;100.00
24962;BME280;12992;50.884;13.668;2023-05-01T03:10:54;97422.13;;;1.56;100.00
24962;BME280;12992;50.884;13.668;2023-05-01T03:13:19;97419.59;;;1.48;100.00
24962;BME280;12992;50.884;13.668;2023-05-01T03:15:46;97429.97;;;1.57;100.00
24962;BME280;12992;50.884;13.668;2023-05-01T03:18:12;97421.72;;;1.59;100.00
24962;BME280;12992;50.884;13.668;2023-05-01T03:20:37;97417.16;;;1.53;100.00
24962;BME280;12992;50.884;13.668;2023-05-01T03:23:03;97408.91;;;1.54;100.00
24962;BME280;12992;50.884;13.668;2023-05-01T03:25:29;97403.69;;;1.46;100.00
24962;BME280;12992;50.884;13.668;2023-05-01T03:27:54;97400.13;;;1.39;100.00
24962;BME280;12992;50.884;13.668;2023-05-01T03:30:19;97418.13;;;1.45;100.00
24962;BME280;12992;50.884;13.668;2023-05-01T03:32:45;97414.16;;;1.41;100.00
24962;BME280;12992;50.884;13.668;2023-05-01T03:35:18;97430.50;;;1.46;100.00
24962;BME280;12992;50.884;13.668;2023-05-01T03:37:43;97428.03;;;1.45;100.00
24962;BME280;12992;50.884;13.668;2023-05-01T03:40:13;97400.72;;;1.34;100.00
24962;BME280;12992;50.884;13.668;2023-05-01T03:43:13;97412.09;;;1.36;100.00
24962;BME280;12992;50.884;13.668;2023-05-01T03:45:38;97413.75;;;1.37;100.00
24962;BME280;12992;50.884;13.668;2023-05-01T03:48:04;97406.28;;;1.33;100.00
24962;BME280;12992;50.884;13.668;2023-05-01T03:50:30;97430.13;;;1.49;100.00
24962;BME280;12992;50.884;13.668;2023-05-01T03:52:56;97422.06;;;1.49;100.00
24962;BME280;12992;50.884;13.668;2023-05-01T03:55:21;97420.47;;;1.55;100.00
24962;BME280;12992;50.884;13.668;2023-05-01T03:57:47;97410.16;;;1.58;100.00
24962;BME280;12992;50.884;13.668;2023-05-01T04:00:13;97393.56;;;1.48;100.00
24962;BME280;12992;50.884;13.668;2023-05-01T04:02:42;97411.84;;;1.59;100.00
24962;BME280;12992;50.884;13.668;2023-05-01T04:05:10;97408.69;;;1.56;100.00
24962;BME280;12992;50.884;13.668;2023-05-01T04:07:39;97428.63;;;1.68;100.00
24962;BME280;12992;50.884;13.668;2023-05-01T04:10:04;97420.13;;;1.64;100.00
24962;BME280;12992;50.884;13.668;2023-05-01T04:12:31;97421.81;;;1.72;100.00
24962;BME280;12992;50.884;13.668;2023-05-01T04:14:56;97421.03;;;1.78;100.00
24962;BME280;12992;50.884;13.668;2023-05-01T04:17:22;97426.50;;;1.98;100.00
24962;BME280;12992;50.884;13.668;2023-05-01T04:19:47;97431.91;;;2.05;100.00
24962;BME280;12992;50.884;13.668;2023-05-01T04:22:13;97423.28;;;2.16;100.00
24962;BME280;12992;50.884;13.668;2023-05-01T04:24:39;97424.53;;;2.20;100.00
24962;BME280;12992;50.884;13.668;2023-05-01T04:27:04;97428.94;;;2.34;100.00
24962;BME280;12992;50.884;13.668;2023-05-01T04:29:30;97413.84;;;2.33;100.00
24962;BME280;12992;50.884;13.668;2023-05-01T04:31:55;97430.03;;;2.53;100.00
24962;BME280;12992;50.884;13.668;2023-05-01T04:34:21;97434.00;;;2.70;100.00
24962;BME280;12992;50.884;13.668;2023-05-01T04:36:46;97428.44;;;2.78;100.00
24962;BME280;12992;50.884;13.668;2023-05-01T04:39:12;97427.00;;;2.82;100.00
24962;BME280;12992;50.884;13.668;2023-05-01T04:41:37;97433.44;;;2.95;100.00
24962;BME280;12992;50.884;13.668;2023-05-01T04:44:04;97442.56;;;3.13;100.00
24962;BME280;12992;50.884;13.668;2023-05-01T04:46:30;97450.44;;;3.35;100.00
24962;BME280;12992;50.884;13.668;2023-05-01T04:48:55;97456.84;;;3.60;100.00
24962;BME280;12992;50.884;13.668;2023-05-01T04:51:21;97464.50;;;3.90;100.00
24962;BME280;12992;50.884;13.668;2023-05-01T04:53:46;97471.28;;;4.12;100.00
24962;BME280;12992;50.884;13.668;2023-05-01T04:56:20;97466.91;;;4.24;100.00
24962;BME280;12992;50.884;13.668;2023-05-01T04:58:47;97454.44;;;4.30;100.00
24962;BME280;12992;50.884;13.668;2023-05-01T05:01:17;97456.06;;;4.44;100.00
24962;BME280;12992;50.884;13.668;2023-05-01T05:03:43;97455.59;;;4.54;100.00
24962;BME280;12992;50.884;13.668;2023-05-01T05:06:10;97442.28;;;4.59;100.00
24962;BME280;12992;50.884;13.668;2023-05-01T05:08:36;97443.44;;;4.76;100.00
24962;BME280;12992;50.884;13.668;2023-05-01T05:11:08;97437.09;;;4.64;100.00
24962;BME280;12992;50.884;13.668;2023-05-01T05:13:39;97468.03;;;5.00;100.00
24962;BME280;12992;50.884;13.668;2023-05-01T05:16:09;97468.47;;;5.28;100.00
24962;BME280;12992;50.884;13.668;2023-05-01T05:18:35;97472.84;;;5.54;100.00
24962;BME280;12992;50.884;13.668;2023-05-01T05:21:04;97485.69;;;6.09;100.00
24962;BME280;12992;50.884;13.668;2023-05-01T05:23:30;97467.91;;;6.19;100.00
24962;BME280;12992;50.884;13.668;2023-05-01T05:25:55;97456.81;;;6.46;100.00
24962;BME280;12992;50.884;13.668;2023-05-01T05:28:22;97458.50;;;6.59;100.00
24962;BME280;12992;50.884;13.668;2023-05-01T05:30:48;97457.19;;;6.79;100.00
24962;BME280;12992;50.884;13.668;2023-05-01T05:33:17;97453.03;;;6.95;100.00
24962;BME280;12992;50.884;13.668;2023-05-01T05:35:43;97465.34;;;7.09;100.00
24962;BME280;12992;50.884;13.668;2023-05-01T05:38:08;97453.25;;;7.24;100.00
24962;BME280;12992;50.884;13.668;2023-05-01T05:40:36;97454.03;;;7.43;100.00
24962;BME280;12992;50.884;13.668;2023-05-01T05:43:02;97444.44;;;7.40;100.00
24962;BME280;12992;50.884;13.668;2023-05-01T05:45:28;97441.31;;;7.43;100.00
24962;BME280;12992;50.884;13.668;2023-05-01T05:47:54;97439.41;;;7.44;100.00
24962;BME280;12992;50.884;13.668;2023-05-01T05:50:20;97463.00;;;7.66;100.00
24962;BME280;12992;50.884;13.668;2023-05-01T05:52:46;97446.72;;;7.66;100.00
24962;BME280;12992;50.884;13.668;2023-05-01T05:55:12;97460.22;;;7.97;100.00
24962;BME280;12992;50.884;13.668;2023-05-01T05:57:38;97451.13;;;8.14;100.00
24962;BME280;12992;50.884;13.668;2023-05-01T06:00:06;97461.50;;;8.41;100.00
24962;BME280;12992;50.884;13.668;2023-05-01T06:02:43;97457.09;;;8.63;100.00
24962;BME280;12992;50.884;13.668;2023-05-01T06:05:08;97435.94;;;8.65;100.00
24962;BME280;12992;50.884;13.668;2023-05-01T06:07:35;97440.41;;;8.71;100.00
24962;BME280;12992;50.884;13.668;2023-05-01T06:10:01;97431.31;;;8.77;100.00
24962;BME280;12992;50.884;13.668;2023-05-01T06:12:32;97416.91;;;8.77;100.00
24962;BME280;12992;50.884;13.668;2023-05-01T06:14:58;97435.06;;;8.88;100.00
24962;BME280;12992;50.884;13.668;2023-05-01T06:17:24;97429.03;;;8.86;100.00
24962;BME280;12992;50.884;13.668;2023-05-01T06:19:49;97418.75;;;8.88;100.00
24962;BME280;12992;50.884;13.668;2023-05-01T06:22:18;97409.47;;;8.72;100.00
24962;BME280;12992;50.884;13.668;2023-05-01T06:24:58;97443.41;;;8.98;100.00
24962;BME280;12992;50.884;13.668;2023-05-01T06:27:25;97451.63;;;9.32;100.00
24962;BME280;12992;50.884;13.668;2023-05-01T06:29:50;97441.50;;;9.44;100.00
24962;BME280;12992;50.884;13.668;2023-05-01T06:32:15;97442.91;;;9.80;97.99
24962;BME280;12992;50.884;13.668;2023-05-01T06:34:41;97436.56;;;10.25;89.27
24962;BME280;12992;50.884;13.668;2023-05-01T06:37:06;97441.88;;;11.02;76.47
24962;BME280;12992;50.884;13.668;2023-05-01T06:39:32;97433.41;;;11.53;73.46
24962;BME280;12992;50.884;13.668;2023-05-01T06:41:58;97402.13;;;11.66;68.74
24962;BME280;12992;50.884;13.668;2023-05-01T06:44:30;97379.44;;;11.92;64.15
24962;BME280;12992;50.884;13.668;2023-05-01T06:46:55;97357.50;;;11.77;65.71
24962;BME280;12992;50.884;13.668;2023-05-01T06:49:21;97320.34;;;11.71;64.53
24962;BME280;12992;50.884;13.668;2023-05-01T06:51:47;97340.09;;;11.83;62.29
24962;BME280;12992;50.884;13.668;2023-05-01T06:54:12;97351.09;;;11.93;64.86
24962;BME280;12992;50.884;13.668;2023-05-01T06:56:38;97326.00;;;12.01;62.74
24962;BME280;12992;50.884;13.668;2023-05-01T06:59:04;97356.47;;;12.35;61.04
24962;BME280;12992;50.884;13.668;2023-05-01T07:01:30;97346.47;;;12.56;59.28
24962;BME280;12992;50.884;13.668;2023-05-01T07:03:55;97331.69;;;12.52;60.11
24962;BME280;12992;50.884;13.668;2023-05-01T07:06:20;97328.47;;;12.70;58.16
24962;BME280;12992;50.884;13.668;2023-05-01T07:08:46;97320.00;;;12.67;59.20
24962;BME280;12992;50.884;13.668;2023-05-01T07:11:11;97318.13;;;12.77;58.43
24962;BME280;12992;50.884;13.668;2023-05-01T07:13:37;97328.53;;;12.96;58.36
24962;BME280;12992;50.884;13.668;2023-05-01T07:16:02;97339.00;;;13.19;58.34
24962;BME280;12992;50.884;13.668;2023-05-01T07:18:27;97325.88;;;13.37;56.27
24962;BME280;12992;50.884;13.668;2023-05-01T07:20:53;97327.50;;;13.48;57.74
24962;BME280;12992;50.884;13.668;2023-05-01T07:23:19;97313.28;;;13.56;54.89
24962;BME280;12992;50.884;13.668;2023-05-01T07:25:44;97291.13;;;13.57;53.67
24962;BME280;12992;50.884;13.668;2023-05-01T07:28:10;97282.66;;;13.54;53.85
24962;BME280;12992;50.884;13.668;2023-05-01T07:30:35;97291.41;;;13.61;55.16
24962;BME280;12992;50.884;13.668;2023-05-01T07:33:01;97267.31;;;13.58;52.96
24962;BME280;12992;50.884;13.668;2023-05-01T07:35:27;97269.50;;;13.61;53.94
24962;BME280;12992;50.884;13.668;2023-05-01T07:37:52;97283.72;;;13.78;53.96
24962;BME280;12992;50.884;13.668;2023-05-01T07:40:19;97276.00;;;13.85;53.48
24962;BME280;12992;50.884;13.668;2023-05-01T07:42:44;97287.78;;;13.86;56.35
24962;BME280;12992;50.884;13.668;2023-05-01T07:45:10;97319.75;;;14.16;55.79
24962;BME280;12992;50.884;13.668;2023-05-01T07:47:35;97296.69;;;14.27;53.36
24962;BME280;12992;50.884;13.668;2023-05-01T07:50:01;97307.06;;;14.40;54.59
24962;BME280;12992;50.884;13.668;2023-05-01T07:52:27;97309.22;;;14.43;57.16
24962;BME280;12992;50.884;13.668;2023-05-01T07:54:52;97313.97;;;14.82;54.39
24962;BME280;12992;50.884;13.668;2023-05-01T07:57:18;97260.44;;;14.51;54.32
24962;BME280;12992;50.884;13.668;2023-05-01T07:59:43;97319.28;;;15.13;52.06
24962;BME280;12992;50.884;13.668;2023-05-01T08:02:08;97331.56;;;15.54;54.16
24962;BME280;12992;50.884;13.668;2023-05-01T08:04:33;97355.44;;;15.93;53.13
24962;BME280;12992;50.884;13.668;2023-05-01T08:06:59;97351.78;;;16.27;50.71
24962;BME280;12992;50.884;13.668;2023-05-01T08:09:24;97361.22;;;16.68;52.00
24962;BME280;12992;50.884;13.668;2023-05-01T08:11:49;97327.84;;;16.75;49.11
24962;BME280;12992;50.884;13.668;2023-05-01T08:14:15;97335.56;;;16.97;49.69
24962;BME280;12992;50.884;13.668;2023-05-01T08:16:42;97362.38;;;17.43;49.97
24962;BME280;12992;50.884;13.668;2023-05-01T08:19:07;97383.75;;;18.02;48.92
24962;BME280;12992;50.884;13.668;2023-05-01T08:21:33;97333.22;;;18.07;47.00
24962;BME280;12992;50.884;13.668;2023-05-01T08:23:58;97345.91;;;18.35;47.15
24962;BME280;12992;50.884;13.668;2023-05-01T08:26:23;97343.97;;;18.63;46.21
24962;BME280;12992;50.884;13.668;2023-05-01T08:28:49;97321.84;;;18.68;45.42
24962;BME280;12992;50.884;13.668;2023-05-01T08:31:14;97344.00;;;18.91;45.77
24962;BME280;12992;50.884;13.668;2023-05-01T08:33:40;97349.03;;;19.25;43.85
24962;BME280;12992;50.884;13.668;2023-05-01T08:36:07;97358.88;;;19.76;43.30
24962;BME280;12992;50.884;13.668;2023-05-01T08:38:34;97385.34;;;20.44;44.69
24962;BME280;12992;50.884;13.668;2023-05-01T08:40:59;97390.75;;;20.89;43.61
24962;BME280;12992;50.884;13.668;2023-05-01T08:43:26;97407.50;;;21.41;42.80
24962;BME280;12992;50.884;13.668;2023-05-01T08:45:53;97425.13;;;22.31;42.68
24962;BME280;12992;50.884;13.668;2023-05-01T08:48:20;97432.59;;;23.33;42.26
24962;BME280;12992;50.884;13.668;2023-05-01T08:50:48;97312.53;;;22.98;38.74
24962;BME280;12992;50.884;13.668;2023-05-01T08:53:17;97343.81;;;22.78;40.67
24962;BME280;12992;50.884;13.668;2023-05-01T08:55:44;97322.34;;;22.96;39.28
24962;BME280;12992;50.884;13.668;2023-05-01T08:58:12;97292.88;;;22.74;39.56
24962;BME280;12992;50.884;13.668;2023-05-01T09:00:38;97268.53;;;22.12;39.85
24962;BME280;12992;50.884;13.668;2023-05-01T09:03:04;97310.78;;;22.55;39.98
24962;BME280;12992;50.884;13.668;2023-05-01T09:05:31;97335.16;;;23.09;40.72
24962;BME280;12992;50.884;13.668;2023-05-01T09:07:57;97329.59;;;23.59;39.27
24962;BME280;12992;50.884;13.668;2023-05-01T09:10:23;97295.75;;;23.36;41.40
24962;BME280;12992;50.884;13.668;2023-05-01T09:12:54;97324.03;;;23.92;39.50
24962;BME280;12992;50.884;13.668;2023-05-01T09:15:22;97344.75;;;24.16;41.47
24962;BME280;12992;50.884;13.668;2023-05-01T09:17:47;97349.50;;;24.97;38.93
24962;BME280;12992;50.884;13.668;2023-05-01T09:20:13;97282.41;;;24.90;41.95
24962;BME280;12992;50.884;13.668;2023-05-01T09:22:38;97353.34;;;25.82;38.79
24962;BME280;12992;50.884;13.668;2023-05-01T09:25:04;97309.53;;;25.70;37.92
24962;BME280;12992;50.884;13.668;2023-05-01T09:27:35;97255.25;;;24.87;39.51
24962;BME280;12992;50.884;13.668;2023-05-01T09:30:01;97259.69;;;24.64;38.25
24962;BME280;12992;50.884;13.668;2023-05-01T09:32:27;97213.72;;;23.96;38.18
24962;BME280;12992;50.884;13.668;2023-05-01T09:34:53;97223.13;;;24.28;37.14
24962;BME280;12992;50.884;13.668;2023-05-01T09:37:32;97203.75;;;24.08;40.83
24962;BME280;12992;50.884;13.668;2023-05-01T09:40:05;97216.66;;;22.92;41.74
24962;BME280;12992;50.884;13.668;2023-05-01T09:42:32;97199.78;;;23.84;37.60
24962;BME280;12992;50.884;13.668;2023-05-01T09:44:58;97238.28;;;23.94;39.62
24962;BME280;12992;50.884;13.668;2023-05-01T09:47:25;97161.47;;;22.91;39.94
24962;BME280;12992;50.884;13.668;2023-05-01T09:49:54;97164.13;;;22.78;39.55
24962;BME280;12992;50.884;13.668;2023-05-01T09:52:19;97084.75;;;21.00;42.99
24962;BME280;12992;50.884;13.668;2023-05-01T09:54:45;97156.84;;;21.47;43.37
24962;BME280;12992;50.884;13.668;2023-05-01T09:57:11;97048.81;;;20.65;42.99
24962;BME280;12992;50.884;13.668;2023-05-01T09:59:36;97094.56;;;20.63;44.21
24962;BME280;12992;50.884;13.668;2023-05-01T10:02:03;97145.84;;;20.78;45.10
24962;BME280;12992;50.884;13.668;2023-05-01T10:04:30;97174.25;;;22.03;42.39
24962;BME280;12992;50.884;13.668;2023-05-01T10:06:56;97144.84;;;22.61;41.66
24962;BME280;12992;50.884;13.668;2023-05-01T10:09:28;97064.19;;;21.65;42.48
24962;BME280;12992;50.884;13.668;2023-05-01T10:11:54;97133.16;;;21.96;42.67
24962;BME280;12992;50.884;13.668;2023-05-01T10:14:22;97183.22;;;22.59;43.29
24962;BME280;12992;50.884;13.668;2023-05-01T10:16:49;97081.28;;;21.97;42.09
24962;BME280;12992;50.884;13.668;2023-05-01T10:19:16;96992.06;;;20.33;43.66
24962;BME280;12992;50.884;13.668;2023-05-01T10:21:42;97099.00;;;21.84;40.75
24962;BME280;12992;50.884;13.668;2023-05-01T10:26:34;97107.78;;;22.45;40.44
24962;BME280;12992;50.884;13.668;2023-05-01T10:29:01;97112.22;;;22.58;40.99
24962;BME280;12992;50.884;13.668;2023-05-01T10:31:27;97076.56;;;22.27;41.13
24962;BME280;12992;50.884;13.668;2023-05-01T10:33:53;97074.78;;;22.22;41.47
24962;BME280;12992;50.884;13.668;2023-05-01T10:36:26;97080.34;;;22.43;41.19
24962;BME280;12992;50.884;13.668;2023-05-01T10:38:56;97042.78;;;22.25;42.15
24962;BME280;12992;50.884;13.668;2023-05-01T10:44:24;97090.97;;;22.41;41.92
24962;BME280;12992;50.884;13.668;2023-05-01T10:46:49;97062.41;;;22.41;40.82
24962;BME280;12992;50.884;13.668;2023-05-01T10:49:15;97016.88;;;21.70;43.00
24962;BME280;12992;50.884;13.668;2023-05-01T10:54:29;96982.91;;;20.76;43.85
24962;BME280;12992;50.884;13.668;2023-05-01T10:57:01;96941.78;;;20.49;43.12
24962;BME280;12992;50.884;13.668;2023-05-01T11:02:25;97063.56;;;22.19;44.30
24962;BME280;12992;50.884;13.668;2023-05-01T11:04:50;97055.63;;;22.50;40.65
24962;BME280;12992;50.884;13.668;2023-05-01T11:07:19;96988.75;;;21.81;41.36
24962;BME280;12992;50.884;13.668;2023-05-01T11:09:52;97040.47;;;22.48;42.14
24962;BME280;12992;50.884;13.668;2023-05-01T11:17:49;97049.69;;;24.65;37.47
24962;BME280;12992;50.884;13.668;2023-05-01T11:22:52;96923.19;;;22.84;39.69
24962;BME280;12992;50.884;13.668;2023-05-01T11:25:19;96986.69;;;23.06;40.47
24962;BME280;12992;50.884;13.668;2023-05-01T11:27:47;97002.91;;;22.83;41.66
24962;BME280;12992;50.884;13.668;2023-05-01T11:30:12;97041.22;;;23.35;43.02
24962;BME280;12992;50.884;13.668;2023-05-01T11:32:42;97064.81;;;24.79;36.94
24962;BME280;12992;50.884;13.668;2023-05-01T11:35:18;97025.31;;;24.74;38.37
24962;BME280;12992;50.884;13.668;2023-05-01T11:37:44;96905.03;;;23.72;39.14
24962;BME280;12992;50.884;13.668;2023-05-01T11:40:29;96955.63;;;23.90;38.86
24962;BME280;12992;50.884;13.668;2023-05-01T11:43:05;96918.22;;;23.87;37.05
24962;BME280;12992;50.884;13.668;2023-05-01T11:45:32;96892.69;;;23.33;37.99
24962;BME280;12992;50.884;13.668;2023-05-01T11:47:58;96862.88;;;22.48;39.76
24962;BME280;12992;50.884;13.668;2023-05-01T11:50:33;96884.22;;;22.23;40.22
24962;BME280;12992;50.884;13.668;2023-05-01T11:52:59;96913.16;;;22.79;41.13
24962;BME280;12992;50.884;13.668;2023-05-01T11:55:30;96855.41;;;22.73;40.27
24962;BME280;12992;50.884;13.668;2023-05-01T11:57:56;96905.31;;;22.48;42.83
24962;BME280;12992;50.884;13.668;2023-05-01T12:00:41;96902.31;;;23.11;39.22
24962;BME280;12992;50.884;13.668;2023-05-01T12:03:11;96908.28;;;23.50;39.10
24962;BME280;12992;50.884;13.668;2023-05-01T12:05:41;96866.88;;;22.96;40.73
24962;BME280;12992;50.884;13.668;2023-05-01T12:08:17;96863.31;;;23.07;40.25
24962;BME280;12992;50.884;13.668;2023-05-01T12:10:44;96855.16;;;22.78;40.39
24962;BME280;12992;50.884;13.668;2023-05-01T12:13:11;96821.97;;;22.57;40.15
24962;BME280;12992;50.884;13.668;2023-05-01T12:15:40;96855.56;;;22.88;42.54
24962;BME280;12992;50.884;13.668;2023-05-01T12:18:06;96867.47;;;22.89;41.58
24962;BME280;12992;50.884;13.668;2023-05-01T12:20:40;96884.69;;;23.43;40.70
24962;BME280;12992;50.884;13.668;2023-05-01T12:23:08;96855.47;;;23.50;39.35
24962;BME280;12992;50.884;13.668;2023-05-01T12:25:35;96876.72;;;23.94;39.23
24962;BME280;12992;50.884;13.668;2023-05-01T12:28:06;96812.84;;;23.70;39.78
24962;BME280;12992;50.884;13.668;2023-05-01T12:30:32;96861.78;;;23.34;40.73
24962;BME280;12992;50.884;13.668;2023-05-01T12:32:57;96892.84;;;24.61;38.52
24962;BME280;12992;50.884;13.668;2023-05-01T12:35:28;96921.75;;;25.66;37.85
24962;BME280;12992;50.884;13.668;2023-05-01T12:37:54;96831.31;;;24.97;37.55
24962;BME280;12992;50.884;13.668;2023-05-01T12:40:20;96763.66;;;23.46;39.57
24962;BME280;12992;50.884;13.668;2023-05-01T12:42:55;96866.00;;;24.24;41.48
24962;BME280;12992;50.884;13.668;2023-05-01T12:45:22;96802.09;;;24.12;40.31
24962;BME280;12992;50.884;13.668;2023-05-01T12:47:48;96794.59;;;24.00;40.34
24962;BME280;12992;50.884;13.668;2023-05-01T12:50:14;96770.84;;;22.70;40.43
24962;BME280;12992;50.884;13.668;2023-05-01T12:52:40;96777.25;;;22.01;42.88
24962;BME280;12992;50.884;13.668;2023-05-01T12:55:05;96775.25;;;22.59;40.34
24962;BME280;12992;50.884;13.668;2023-05-01T12:57:33;96763.00;;;22.48;39.74
24962;BME280;12992;50.884;13.668;2023-05-01T13:00:00;96762.50;;;22.21;40.60
24962;BME280;12992;50.884;13.668;2023-05-01T13:02:30;96784.00;;;22.24;41.65
24962;BME280;12992;50.884;13.668;2023-05-01T13:05:06;96767.59;;;22.19;41.58
24962;BME280;12992;50.884;13.668;2023-05-01T13:07:34;96755.13;;;22.50;40.13
24962;BME280;12992;50.884;13.668;2023-05-01T13:10:00;96797.25;;;22.88;41.34
24962;BME280;12992;50.884;13.668;2023-05-01T13:12:27;96762.44;;;21.64;42.62
24962;BME280;12992;50.884;13.668;2023-05-01T13:14:53;96808.25;;;22.97;40.49
24962;BME280;12992;50.884;13.668;2023-05-01T13:17:37;96781.81;;;23.15;40.24
24962;BME280;12992;50.884;13.668;2023-05-01T13:20:03;96758.38;;;22.64;41.08